createdAt,value
2022-11-05T00:00:36.243Z,101131.97
2022-11-05T00:04:15.758Z,101150.88
2022-11-05T00:08:09.985Z,101150.94
2022-11-05T00:11:45.547Z,101155.28
2022-11-05T00:15:24.967Z,101158.81
2022-11-05T00:19:06.607Z,101149.41
2022-11-05T00:22:46.296Z,101159.75
2022-11-05T00:26:11.503Z,101170.09
2022-11-05T00:29:33.756Z,101168.38
2022-11-05T00:32:55.979Z,101174.44
2022-11-05T00:36:18.931Z,101177.03
2022-11-05T00:39:40.702Z,101174.47
2022-11-05T00:43:20.277Z,101168.44
2022-11-05T00:46:42.317Z,101172.75
2022-11-05T00:50:03.738Z,101154.69
2022-11-05T00:53:27.289Z,101161.63
2022-11-05T00:56:49.124Z,101159.06
2022-11-05T01:00:12.610Z,101149.63
2022-11-05T01:03:37.197Z,101159.97
2022-11-05T01:06:58.951Z,101157.44
2022-11-05T01:10:23.566Z,101153.13
2022-11-05T01:13:45.723Z,101152.34
2022-11-05T01:17:07.642Z,101165.22
2022-11-05T01:20:29.719Z,101162.69
2022-11-05T01:23:51.855Z,101161.81
2022-11-05T01:27:14.858Z,101165.31
2022-11-05T01:30:37.381Z,101165.31
2022-11-05T01:34:01.925Z,101155.84
2022-11-05T01:37:24.194Z,101149.88
2022-11-05T01:40:46.404Z,101156.72
2022-11-05T01:44:40.526Z,101153.31
2022-11-05T01:48:07.923Z,101152.47
2022-11-05T01:51:30.166Z,101144.81
2022-11-05T01:54:52.334Z,101135.44
2022-11-05T01:58:17.771Z,101147.47
2022-11-05T02:01:39.694Z,101144.97
2022-11-05T02:05:05.204Z,101149.28
2022-11-05T02:08:39.256Z,101141.63
2022-11-05T02:12:01.144Z,101143.38
2022-11-05T02:15:47.828Z,101164.88
2022-11-05T02:19:31.616Z,101158.84
2022-11-05T02:23:42.289Z,101167.44
2022-11-05T02:27:17.066Z,101158.88
2022-11-05T02:30:47.853Z,101163.19
2022-11-05T02:34:20.087Z,101173.50
2022-11-05T02:37:47.387Z,101164.94
2022-11-05T02:41:18.213Z,101140.91
2022-11-05T02:44:49.044Z,101164.09
2022-11-05T02:48:17.939Z,101159.81
2022-11-05T02:51:47.585Z,101169.28
2022-11-05T02:55:20.243Z,101169.31
2022-11-05T02:58:41.882Z,101164.13
2022-11-05T03:02:05.335Z,101167.56
2022-11-05T03:05:38.131Z,101165.00
2022-11-05T03:09:28.655Z,101169.31
2022-11-05T03:13:05.355Z,101169.31
2022-11-05T03:16:36.606Z,101171.03
2022-11-05T03:20:08.616Z,101175.34
2022-11-05T03:23:37.645Z,101180.50
2022-11-05T03:27:05.365Z,101153.88
2022-11-05T03:30:27.670Z,101162.47
2022-11-05T03:33:53.073Z,101169.31
2022-11-05T03:37:18.271Z,101171.06
2022-11-05T03:40:44.139Z,101165.91
2022-11-05T03:44:09.226Z,101163.31
2022-11-05T03:47:36.624Z,101129.00
2022-11-05T03:51:03.989Z,101166.78
2022-11-05T03:54:26.246Z,101162.47
2022-11-05T03:57:52.728Z,101168.50
2022-11-05T04:01:15.806Z,101159.88
2022-11-05T04:04:37.817Z,101154.72
2022-11-05T04:08:17.280Z,101138.41
2022-11-05T04:11:57.154Z,101158.16
2022-11-05T04:15:20.836Z,101142.72
2022-11-05T04:18:42.152Z,101153.91
2022-11-05T04:22:21.797Z,101153.03
2022-11-05T04:25:43.903Z,101155.59
2022-11-05T04:29:24.054Z,101164.19
2022-11-05T04:32:59.089Z,101159.88
2022-11-05T04:36:20.835Z,101154.75
2022-11-05T04:39:42.535Z,101159.03
2022-11-05T04:43:05.163Z,101175.34
2022-11-05T04:46:28.479Z,101176.22
2022-11-05T04:49:51.538Z,101179.66
2022-11-05T04:53:13.826Z,101188.25
2022-11-05T04:56:35.842Z,101172.78
2022-11-05T04:59:58.178Z,101173.63
2022-11-05T05:03:20.153Z,101165.91
2022-11-05T05:06:43.695Z,101160.75
2022-11-05T05:10:06.842Z,101163.31
2022-11-05T05:13:29.008Z,101170.22
2022-11-05T05:16:51.146Z,101172.78
2022-11-05T05:20:31.076Z,101175.34
2022-11-05T05:23:54.368Z,101178.81
2022-11-05T05:27:16.439Z,101176.22
2022-11-05T05:30:38.598Z,101178.81
2022-11-05T05:34:00.556Z,101182.22
2022-11-05T05:37:22.287Z,101177.09
2022-11-05T05:40:45.957Z,101191.69
2022-11-05T05:44:08.171Z,101181.38
2022-11-05T05:47:29.949Z,101203.72
2022-11-05T05:50:51.999Z,101210.59
2022-11-05T05:54:13.602Z,101199.44
2022-11-05T05:57:36.859Z,101226.91
2022-11-05T06:01:02.380Z,101226.91
2022-11-05T06:04:24.305Z,101211.44
2022-11-05T06:07:46.291Z,101208.84
2022-11-05T06:11:08.705Z,101220.03
2022-11-05T06:14:31.815Z,101197.69
2022-11-05T06:17:53.690Z,101199.41
2022-11-05T06:21:18.100Z,101203.66
2022-11-05T06:24:40.144Z,101207.09
2022-11-05T06:28:02.182Z,101201.06
2022-11-05T06:31:25.348Z,101189.03
2022-11-05T06:34:47.200Z,101196.78
2022-11-05T06:38:09.305Z,101199.34
2022-11-05T06:41:30.969Z,101177.00
2022-11-05T06:44:53.313Z,101195.03
2022-11-05T06:48:17.024Z,101207.91
2022-11-05T06:51:39.065Z,101209.63
2022-11-05T06:55:00.701Z,101202.75
2022-11-05T06:58:23.059Z,101169.19
2022-11-05T07:01:45.175Z,101198.41
2022-11-05T07:05:11.265Z,101207.88
2022-11-05T07:08:34.052Z,101204.44
2022-11-05T07:11:56.422Z,101188.06
2022-11-05T07:15:17.995Z,101206.09
2022-11-05T07:18:39.845Z,101212.94
2022-11-05T07:22:03.230Z,101216.31
2022-11-05T07:25:25.119Z,101221.38
2022-11-05T07:28:47.091Z,101217.00
2022-11-05T07:32:09.494Z,101233.31
2022-11-05T07:35:31.865Z,101227.22
2022-11-05T07:39:00.171Z,101230.66
2022-11-05T07:42:22.920Z,101229.78
2022-11-05T07:45:46.488Z,101224.66
2022-11-05T07:49:08.687Z,101234.16
2022-11-05T07:52:32.653Z,101234.16
2022-11-05T07:55:57.318Z,101233.31
2022-11-05T07:59:19.526Z,101229.91
2022-11-05T08:02:42.016Z,101223.00
2022-11-05T08:06:04.449Z,101225.59
2022-11-05T08:09:26.129Z,101223.03
2022-11-05T08:12:49.761Z,101223.88
2022-11-05T08:16:12.072Z,101236.75
2022-11-05T08:19:34.032Z,101230.72
2022-11-05T08:22:57.052Z,101240.19
2022-11-05T08:26:19.704Z,101238.47
2022-11-05T08:29:43.026Z,101242.78
2022-11-05T08:33:06.639Z,101222.94
2022-11-05T08:36:28.494Z,101241.09
2022-11-05T08:39:50.546Z,101205.88
2022-11-05T08:43:14.568Z,101223.97
2022-11-05T08:46:41.595Z,101215.41
2022-11-05T08:50:03.871Z,101216.31
2022-11-05T08:53:25.832Z,101210.34
2022-11-05T08:56:47.821Z,101163.91
2022-11-05T09:00:11.463Z,101188.91
2022-11-05T09:03:34.968Z,101181.19
2022-11-05T09:07:23.039Z,101187.22
2022-11-05T09:10:45.811Z,101197.53
2022-11-05T09:14:07.716Z,101200.97
2022-11-05T09:17:30.027Z,101195.78
2022-11-05T09:20:54.254Z,101208.66
2022-11-05T09:24:16.520Z,101201.72
2022-11-05T09:27:38.834Z,101200.06
2022-11-05T09:31:00.839Z,101198.31
2022-11-05T09:34:22.799Z,101192.25
2022-11-05T09:37:45.903Z,101180.25
2022-11-05T09:41:14.073Z,101191.47
2022-11-05T09:44:42.187Z,101200.91
2022-11-05T09:48:08.816Z,101165.66
2022-11-05T09:51:30.821Z,101189.78
2022-11-05T09:54:55.671Z,101192.34
2022-11-05T09:58:25.998Z,101188.91
2022-11-05T10:01:52.748Z,101181.19
2022-11-05T10:05:15.748Z,101191.50
2022-11-05T10:08:42.823Z,101190.63
2022-11-05T10:12:08.909Z,101176.84
2022-11-05T10:15:34.285Z,101210.34
2022-11-05T10:19:02.051Z,101211.25
2022-11-05T10:22:23.682Z,101216.41
2022-11-05T10:25:50.161Z,101197.53
2022-11-05T10:29:17.318Z,101186.38
2022-11-05T10:32:41.084Z,101194.09
2022-11-05T10:36:06.346Z,101173.53
2022-11-05T10:39:28.921Z,101191.56
2022-11-05T10:42:58.250Z,101172.69
2022-11-05T10:46:30.036Z,101169.25
2022-11-05T10:49:58.993Z,101169.25
2022-11-05T10:53:24.123Z,101157.25
2022-11-05T10:56:45.897Z,101152.13
2022-11-05T11:00:22.941Z,101140.09
2022-11-05T11:03:48.982Z,101139.22
2022-11-05T11:07:23.359Z,101122.06
2022-11-05T11:10:51.259Z,101139.25
2022-11-05T11:14:22.503Z,101143.53
2022-11-05T11:17:44.660Z,101137.56
2022-11-05T11:21:16.993Z,101141.84
2022-11-05T11:24:40.609Z,101150.44
2022-11-05T11:28:05.151Z,101137.56
2022-11-05T11:31:29.421Z,101142.72
2022-11-05T11:34:54.471Z,101125.53
2022-11-05T11:38:18.810Z,101134.13
2022-11-05T11:41:44.239Z,101140.13
2022-11-05T11:45:15.773Z,101130.69
2022-11-05T11:48:38.139Z,101122.97
2022-11-05T11:52:03.765Z,101150.47
2022-11-05T11:55:30.333Z,101132.44
2022-11-05T11:58:54.114Z,101153.03
2022-11-05T12:03:00.500Z,101132.44
2022-11-05T12:06:31.616Z,101141.88
2022-11-05T12:10:05.146Z,101123.84
2022-11-05T12:13:44.643Z,101110.09
2022-11-05T12:17:27.347Z,101110.97
2022-11-05T12:21:07.497Z,101122.13
2022-11-05T12:24:56.798Z,101128.13
2022-11-05T12:28:26.881Z,101104.94
2022-11-05T12:31:57.019Z,101092.03
2022-11-05T12:35:36.130Z,101091.22
2022-11-05T12:39:19.817Z,101069.75
2022-11-05T12:42:58.451Z,101089.47
2022-11-05T12:46:29.664Z,101090.34
2022-11-05T12:50:05.738Z,101085.19
2022-11-05T12:53:45.871Z,101099.78
2022-11-05T12:57:12.838Z,101082.63
2022-11-05T13:00:38.510Z,101078.31
2022-11-05T13:04:02.881Z,101073.16
2022-11-05T13:07:31.419Z,101086.03
2022-11-05T13:10:58.563Z,101083.44
2022-11-05T13:14:25.137Z,101089.47
2022-11-05T13:17:53.211Z,101081.72
2022-11-05T13:21:17.183Z,101089.47
2022-11-05T13:24:47.163Z,101080.03
2022-11-05T13:28:22.690Z,101057.72
2022-11-05T13:31:50.169Z,101068.00
2022-11-05T13:35:18.594Z,101064.56
2022-11-05T13:39:00.406Z,101038.84
2022-11-05T13:42:55.099Z,101068.88
2022-11-05T13:46:43.741Z,101066.28
2022-11-05T13:50:45.304Z,101065.41
2022-11-05T13:54:26.290Z,101072.28
2022-11-05T13:58:24.277Z,101068.00
2022-11-05T14:01:50.870Z,101073.16
2022-11-05T14:05:24.497Z,101062.81
2022-11-05T14:08:47.597Z,101071.41
2022-11-05T14:12:21.177Z,101063.69
2022-11-05T14:15:56.821Z,101079.16
2022-11-05T14:19:37.946Z,101034.50
2022-11-05T14:23:44.035Z,101059.41
2022-11-05T14:27:45.874Z,101055.94
2022-11-05T14:32:08.410Z,101054.22
2022-11-05T14:35:40.770Z,101044.78
2022-11-05T14:39:19.006Z,101057.63
2022-11-05T14:42:40.899Z,101056.81
2022-11-05T14:46:06.247Z,101043.91
2022-11-05T14:49:31.536Z,101035.28
2022-11-05T14:52:57.036Z,101014.69
2022-11-05T14:56:20.513Z,101008.66
2022-11-05T15:00:03.229Z,101015.53
2022-11-05T15:03:42.598Z,101029.28
2022-11-05T15:07:38.878Z,101030.16
2022-11-05T15:11:12.786Z,101019.84
2022-11-05T15:14:39.339Z,101006.97
2022-11-05T15:18:05.883Z,101011.25
2022-11-05T15:21:31.577Z,101006.97
2022-11-05T15:24:53.802Z,101011.25
2022-11-05T15:28:25.260Z,101015.53
2022-11-05T15:31:48.227Z,101030.16
2022-11-05T15:35:20.294Z,101024.13
2022-11-05T15:38:56.646Z,101026.69
2022-11-05T15:42:27.697Z,101012.09
2022-11-05T15:46:08.795Z,101025.84
2022-11-05T15:49:31.355Z,101018.94
2022-11-05T15:52:56.688Z,101021.50
2022-11-05T15:56:28.005Z,101012.91
2022-11-05T15:59:50.229Z,101014.63
2022-11-05T16:03:27.769Z,100997.47
2022-11-05T16:06:53.798Z,100996.59
2022-11-05T16:10:20.598Z,101003.47
2022-11-05T16:13:43.271Z,101008.63
2022-11-05T16:17:18.638Z,100989.75
2022-11-05T16:20:41.986Z,100994.00
2022-11-05T16:24:03.690Z,100991.44
2022-11-05T16:27:25.827Z,100990.56
2022-11-05T16:30:54.870Z,100966.59
2022-11-05T16:34:26.952Z,100989.72
2022-11-05T16:37:52.389Z,100947.66
2022-11-05T16:41:19.392Z,100975.09
2022-11-05T16:44:41.264Z,100950.25
2022-11-05T16:48:03.334Z,100974.22
2022-11-05T16:51:27.511Z,100980.22
2022-11-05T16:54:50.631Z,100976.78
2022-11-05T16:58:19.924Z,100958.75
2022-11-05T17:01:44.614Z,100957.84
2022-11-05T17:05:08.837Z,100932.09
2022-11-05T17:08:30.974Z,100965.56
2022-11-05T17:11:54.608Z,100969.84
2022-11-05T17:15:22.962Z,100966.38
2022-11-05T17:18:45.031Z,100944.06
2022-11-05T17:22:06.928Z,100962.97
2022-11-05T17:25:29.641Z,100951.81
2022-11-05T17:28:52.820Z,100966.38
2022-11-05T17:32:14.868Z,100968.09
2022-11-05T17:35:39.645Z,100971.50
2022-11-05T17:39:01.748Z,100962.88
2022-11-05T17:42:23.387Z,100956.84
2022-11-05T17:45:49.768Z,100961.16
2022-11-05T17:49:11.749Z,100952.53
2022-11-05T17:52:33.869Z,100951.63
2022-11-05T17:55:55.904Z,100950.75
2022-11-05T17:59:17.963Z,100958.47
2022-11-05T18:02:41.823Z,100956.75
2022-11-05T18:06:05.127Z,100944.69
2022-11-05T18:09:26.999Z,100950.69
2022-11-05T18:12:49.654Z,100937.78
2022-11-05T18:16:11.985Z,100951.53
2022-11-05T18:19:37.398Z,100936.03
2022-11-05T18:22:59.340Z,100942.00
2022-11-05T18:26:21.738Z,100933.41
2022-11-05T18:29:43.624Z,100933.38
2022-11-05T18:33:05.709Z,100923.06
2022-11-05T18:36:31.632Z,100941.06
2022-11-05T18:39:54.914Z,100941.91
2022-11-05T18:43:16.875Z,100939.31
2022-11-05T18:50:20.759Z,100945.28
2022-11-05T18:53:44.807Z,100943.53
2022-11-05T18:57:07.246Z,100942.66
2022-11-05T19:00:29.546Z,100942.66
2022-11-05T19:07:16.788Z,100934.88
2022-11-05T19:10:42.367Z,100932.31
2022-11-05T19:14:04.234Z,100916.00
2022-11-05T19:17:26.629Z,100926.28
2022-11-05T19:20:49.169Z,100919.38
2022-11-05T19:24:16.862Z,100918.53
2022-11-05T19:27:41.209Z,100928.88
2022-11-05T19:31:03.895Z,100924.56
2022-11-05T19:34:26.032Z,100919.38
2022-11-05T19:37:47.571Z,100919.38
2022-11-05T19:41:14.094Z,100914.19
2022-11-05T19:44:37.608Z,100922.78
2022-11-05T19:47:59.390Z,100912.47
2022-11-05T19:51:24.031Z,100896.19
2022-11-05T19:54:46.739Z,100908.19
2022-11-05T19:58:09.561Z,100914.19
2022-11-05T20:01:34.063Z,100909.03
2022-11-05T20:04:55.810Z,100907.31
2022-11-05T20:08:18.043Z,100902.13
2022-11-05T20:11:40.660Z,100898.72
2022-11-05T20:15:02.892Z,100901.25
2022-11-05T20:18:27.539Z,100890.09
2022-11-05T20:21:49.143Z,100900.38
2022-11-05T20:25:11.575Z,100903.84
2022-11-05T20:28:33.931Z,100897.78
2022-11-05T20:31:57.965Z,100902.97
2022-11-05T20:35:21.269Z,100909.81
2022-11-05T20:38:43.517Z,100904.63
2022-11-05T20:42:05.148Z,100896.03
2022-11-05T20:45:27.242Z,100901.19
2022-11-05T20:48:49.960Z,100892.59
2022-11-05T20:52:16.995Z,100896.88
2022-11-05T20:55:44.125Z,100894.28
2022-11-05T20:59:06.686Z,100884.88
2022-11-05T21:02:28.918Z,100884.88
2022-11-05T21:05:54.562Z,100887.47
2022-11-05T21:09:18.077Z,100879.78
2022-11-05T21:12:40.326Z,100872.81
2022-11-05T21:16:02.659Z,100860.78
2022-11-05T21:19:24.874Z,100859.91
2022-11-05T21:22:47.496Z,100853.91
2022-11-05T21:26:13.243Z,100858.16
2022-11-05T21:29:34.944Z,100833.34
2022-11-05T21:32:57.090Z,100865.03
2022-11-05T21:36:19.097Z,100847.88
2022-11-05T21:39:41.082Z,100864.22
2022-11-05T21:43:04.599Z,100859.94
2022-11-05T21:46:26.786Z,100861.63
2022-11-05T21:49:48.779Z,100864.19
2022-11-05T21:53:32.039Z,100850.44
2022-11-05T21:57:11.499Z,100854.72
2022-11-05T22:00:34.693Z,100859.03
2022-11-05T22:04:00.394Z,100859.06
2022-11-05T22:07:26.509Z,100847.09
2022-11-05T22:10:48.625Z,100845.31
2022-11-05T22:14:10.340Z,100848.75
2022-11-05T22:17:34.080Z,100845.25
2022-11-05T22:20:55.918Z,100835.84
2022-11-05T22:24:18.155Z,100832.38
2022-11-05T22:27:40.404Z,100833.19
2022-11-05T22:31:02.417Z,100849.50
2022-11-05T22:34:26.222Z,100835.78
2022-11-05T22:37:48.261Z,100837.44
2022-11-05T22:41:10.910Z,100839.16
2022-11-05T22:44:32.417Z,100805.81
2022-11-05T22:47:54.485Z,100827.09
2022-11-05T22:51:19.712Z,100821.94
2022-11-05T22:54:41.386Z,100814.19
2022-11-05T22:58:03.355Z,100816.78
2022-11-05T23:01:26.349Z,100813.38
2022-11-05T23:04:49.608Z,100813.34
2022-11-05T23:08:30.539Z,100810.75
2022-11-05T23:11:57.397Z,100794.50
2022-11-05T23:15:32.969Z,100801.28
2022-11-05T23:19:12.377Z,100802.16
2022-11-05T23:22:52.027Z,100798.69
2022-11-05T23:26:32.751Z,100786.69
2022-11-05T23:29:54.960Z,100782.38
2022-11-05T23:33:16.945Z,100785.78
2022-11-05T23:36:56.645Z,100778.88
2022-11-05T23:40:20.504Z,100790.91
2022-11-05T23:44:01.145Z,100784.84
2022-11-05T23:47:40.702Z,100780.56
2022-11-05T23:51:04.077Z,100783.19
2022-11-05T23:54:25.880Z,100773.72
2022-11-05T23:57:47.839Z,100765.16
